Time;durP1;ratioP1;P1;durP2;ratioP2;P2;SDS_P1;SDS_P2;PMS_P1;PMS_P2;Temp;Humidity;BMP_temperature;BMP_pressure;BME280_temperature;BME280_humidity;BME280_pressure;Samples;Min_cycle;Max_cycle;Signal;HPM_P1;HPM_P2
2022/03/19 00:02:47;;;;;;;2.87;1.50;;;17.40;58.30;;;;;;5234272;28;20193;-65
2022/03/19 00:05:40;;;;;;;2.27;1.50;;;17.30;58.30;;;;;;5246787;28;20280;-66
2022/03/19 00:08:33;;;;;;;3.73;1.50;;;17.30;58.30;;;;;;5245887;28;20312;-65
2022/03/19 00:11:25;;;;;;;2.57;1.30;;;17.30;58.10;;;;;;5245499;28;20188;-65
2022/03/19 00:14:17;;;;;;;3.03;1.57;;;17.30;58.20;;;;;;5245590;28;20205;-65
2022/03/19 00:17:11;;;;;;;2.87;1.50;;;17.40;58.30;;;;;;5241318;28;20229;-66
2022/03/19 00:20:04;;;;;;;2.80;1.60;;;17.40;58.30;;;;;;5226182;28;20214;-66
2022/03/19 00:22:56;;;;;;;2.30;1.33;;;17.30;58.10;;;;;;5224491;28;20283;-65
2022/03/19 00:25:49;;;;;;;2.53;1.50;;;17.30;58.10;;;;;;5225354;28;20189;-65
2022/03/19 00:28:42;;;;;;;2.20;1.33;;;17.30;57.90;;;;;;5224872;28;20213;-66
2022/03/19 00:31:34;;;;;;;3.63;1.50;;;17.30;57.90;;;;;;5224652;28;20661;-66
2022/03/19 00:34:26;;;;;;;2.00;1.17;;;17.30;57.90;;;;;;5225289;28;20196;-64
2022/03/19 00:37:18;;;;;;;3.13;1.67;;;17.30;57.90;;;;;;5236851;28;20208;-65
2022/03/19 00:40:12;;;;;;;2.73;1.30;;;17.30;58.00;;;;;;5244911;28;20208;-66
2022/03/19 00:43:05;;;;;;;2.57;1.07;;;17.30;57.90;;;;;;5240306;28;20197;-65
2022/03/19 00:45:57;;;;;;;4.20;1.70;;;17.30;58.00;;;;;;5227195;28;20196;-65
2022/03/19 00:48:49;;;;;;;4.43;1.20;;;17.30;57.90;;;;;;5224224;28;20213;-65
2022/03/19 00:51:41;;;;;;;2.13;1.30;;;17.30;57.90;;;;;;5246468;28;20193;-66
2022/03/19 00:54:33;;;;;;;3.33;1.50;;;17.30;57.90;;;;;;5240398;28;20205;-65
2022/03/19 00:57:26;;;;;;;3.70;1.40;;;17.30;57.80;;;;;;5229451;28;20200;-65
2022/03/19 01:00:24;;;;;;;1.93;1.37;;;17.30;57.80;;;;;;5228071;28;20217;-67
2022/03/19 01:03:16;;;;;;;2.10;1.33;;;17.30;57.80;;;;;;5243271;28;20207;-66
2022/03/19 01:06:08;;;;;;;2.37;1.30;;;17.30;57.80;;;;;;5247792;28;20556;-65
2022/03/19 01:09:00;;;;;;;1.77;1.30;;;17.30;57.70;;;;;;5241475;28;20223;-66
2022/03/19 01:11:53;;;;;;;2.03;1.20;;;17.30;57.70;;;;;;5248395;28;20220;-65
2022/03/19 01:14:45;;;;;;;2.77;1.43;;;17.30;57.70;;;;;;5247732;28;20216;-65
2022/03/19 01:17:39;;;;;;;2.50;1.30;;;17.30;57.70;;;;;;5247495;28;20586;-66
2022/03/19 01:20:31;;;;;;;3.90;1.83;;;17.30;57.80;;;;;;5243527;28;20624;-67
2022/03/19 01:23:23;;;;;;;2.57;1.57;;;17.30;57.70;;;;;;5248822;28;20197;-66
2022/03/19 01:26:15;;;;;;;3.13;1.53;;;17.30;57.60;;;;;;5248479;28;20386;-65
2022/03/19 01:29:07;;;;;;;3.00;1.60;;;17.30;57.60;;;;;;5247615;28;20208;-66
2022/03/19 01:31:59;;;;;;;4.07;1.47;;;17.30;57.50;;;;;;5247450;28;20196;-65
2022/03/19 01:34:53;;;;;;;2.30;1.60;;;17.30;57.60;;;;;;5247647;28;20686;-66
2022/03/19 01:37:46;;;;;;;2.30;1.20;;;17.30;57.70;;;;;;5247599;28;20210;-65
2022/03/19 01:40:38;;;;;;;3.27;1.50;;;17.30;57.60;;;;;;5247331;28;20219;-67
2022/03/19 01:43:31;;;;;;;3.53;1.40;;;17.30;57.60;;;;;;5247796;28;20387;-65
2022/03/19 01:46:23;;;;;;;2.97;1.20;;;17.30;57.50;;;;;;5248090;28;20200;-65
2022/03/19 01:49:15;;;;;;;3.63;1.50;;;17.30;57.60;;;;;;5247971;28;20216;-66
2022/03/19 01:52:09;;;;;;;2.80;1.60;;;17.30;57.60;;;;;;5229080;28;20212;-66
2022/03/19 01:55:01;;;;;;;2.33;1.40;;;17.30;57.60;;;;;;5238078;28;20193;-66
2022/03/19 01:57:54;;;;;;;3.80;1.77;;;17.30;57.50;;;;;;5227528;28;20197;-66
2022/03/19 02:00:47;;;;;;;2.47;1.40;;;17.30;57.50;;;;;;5227045;28;20343;-66
2022/03/19 02:03:39;;;;;;;2.67;1.40;;;17.30;57.60;;;;;;5226863;28;20197;-66
2022/03/19 02:06:32;;;;;;;2.70;1.47;;;17.30;57.50;;;;;;5227151;28;20193;-65
2022/03/19 02:09:26;;;;;;;3.90;1.40;;;17.30;57.50;;;;;;5226215;28;20217;-64
2022/03/19 02:12:18;;;;;;;2.83;1.50;;;17.30;57.40;;;;;;5240931;28;20197;-65
2022/03/19 02:15:11;;;;;;;2.40;1.23;;;17.30;58.00;;;;;;5234400;28;20201;-66
2022/03/19 02:18:04;;;;;;;2.43;1.53;;;17.30;57.60;;;;;;5227393;28;20200;-66
2022/03/19 02:20:57;;;;;;;3.13;1.47;;;17.30;57.60;;;;;;5227029;28;20657;-66
2022/03/19 02:27:06;;;;;;;2.13;1.27;;;17.30;57.60;;;;;;5248031;28;20185;-66
2022/03/19 02:29:58;;;;;;;3.53;1.50;;;17.30;57.60;;;;;;5246469;28;20217;-65
2022/03/19 02:32:50;;;;;;;3.33;1.50;;;17.30;57.50;;;;;;5247056;28;20576;-66
2022/03/19 02:35:42;;;;;;;2.70;1.27;;;17.30;57.50;;;;;;5247470;28;20660;-66
2022/03/19 02:38:34;;;;;;;2.67;1.37;;;17.30;57.50;;;;;;5239545;28;20273;-66
2022/03/19 02:41:28;;;;;;;3.10;1.20;;;17.30;57.50;;;;;;5246324;28;20211;-64
2022/03/19 02:44:20;;;;;;;3.77;1.60;;;17.30;57.60;;;;;;5246081;28;20251;-66
2022/03/19 02:47:13;;;;;;;2.60;1.30;;;17.30;57.50;;;;;;5246423;28;20276;-65
2022/03/19 02:50:06;;;;;;;2.90;1.13;;;17.30;57.60;;;;;;5239824;28;20610;-65
2022/03/19 02:52:59;;;;;;;3.43;1.37;;;17.30;57.50;;;;;;5229083;28;20197;-65
2022/03/19 02:55:52;;;;;;;2.90;1.40;;;17.30;57.70;;;;;;5237879;28;20588;-66
2022/03/19 02:58:45;;;;;;;3.00;1.30;;;17.30;57.60;;;;;;5247516;28;20576;-66
2022/03/19 03:01:37;;;;;;;2.93;1.30;;;17.30;57.60;;;;;;5247103;28;20201;-65
2022/03/19 03:04:30;;;;;;;2.23;1.10;;;17.30;57.70;;;;;;5247016;28;20206;-67
2022/03/19 03:07:22;;;;;;;1.93;1.37;;;17.30;57.60;;;;;;5246034;28;20194;-65
2022/03/19 03:10:16;;;;;;;3.30;1.50;;;17.30;57.50;;;;;;5245469;28;20224;-65
2022/03/19 03:13:08;;;;;;;3.37;1.50;;;17.30;57.50;;;;;;5244138;28;20200;-66
2022/03/19 03:16:02;;;;;;;2.70;1.10;;;17.30;57.50;;;;;;5241704;28;20201;-66
2022/03/19 03:18:55;;;;;;;3.30;1.23;;;17.30;57.60;;;;;;5228031;28;20286;-65
2022/03/19 03:21:48;;;;;;;2.83;1.37;;;17.30;57.60;;;;;;5225791;28;20664;-66
2022/03/19 03:24:40;;;;;;;2.93;1.47;;;17.30;57.70;;;;;;5226301;28;20198;-66
2022/03/19 03:27:32;;;;;;;2.67;1.50;;;17.30;57.50;;;;;;5225947;28;20215;-65
2022/03/19 03:30:25;;;;;;;3.27;1.30;;;17.30;57.40;;;;;;5225753;28;20623;-66
2022/03/19 03:33:18;;;;;;;4.47;1.43;;;17.30;57.30;;;;;;5241848;28;20660;-66
2022/03/19 03:36:10;;;;;;;3.00;1.47;;;17.30;57.40;;;;;;5246538;28;20567;-65
2022/03/19 03:39:03;;;;;;;2.67;1.23;;;17.30;57.30;;;;;;5245698;28;20212;-65
2022/03/19 03:41:55;;;;;;;2.10;1.23;;;17.30;57.40;;;;;;5245618;28;20568;-66
2022/03/19 03:44:47;;;;;;;2.53;1.27;;;17.30;57.40;;;;;;5245671;28;20196;-65
2022/03/19 03:47:40;;;;;;;3.00;1.20;;;17.20;57.20;;;;;;5245345;28;20196;-65
2022/03/19 03:50:33;;;;;;;3.07;1.30;;;17.30;57.40;;;;;;5231233;28;20592;-65
2022/03/19 03:53:28;;;;;;;2.50;1.20;;;17.30;57.30;;;;;;5225572;28;20250;-65
2022/03/19 03:56:21;;;;;;;3.17;1.50;;;17.30;57.40;;;;;;5238371;28;20192;-66
2022/03/19 03:59:13;;;;;;;3.33;1.60;;;17.30;57.40;;;;;;5245896;28;20217;-65
2022/03/19 04:02:05;;;;;;;2.73;1.23;;;17.30;57.60;;;;;;5245964;28;20203;-67
2022/03/19 04:04:57;;;;;;;3.43;1.40;;;17.30;57.50;;;;;;5225900;28;20193;-66
2022/03/19 04:07:51;;;;;;;2.27;1.33;;;17.30;57.50;;;;;;5225156;28;20212;-65
2022/03/19 04:10:43;;;;;;;2.40;1.20;;;17.30;57.30;;;;;;5224575;28;20550;-66
2022/03/19 04:13:36;;;;;;;3.20;1.30;;;17.30;57.20;;;;;;5224903;28;20197;-66
2022/03/19 04:16:28;;;;;;;4.23;1.23;;;17.30;57.40;;;;;;5224899;28;20197;-64
2022/03/19 04:19:20;;;;;;;2.53;1.27;;;17.30;57.50;;;;;;5224671;28;20220;-66
2022/03/19 04:22:12;;;;;;;2.30;1.10;;;17.30;57.30;;;;;;5233771;28;20202;-66
2022/03/19 04:25:11;;;;;;;2.17;1.30;;;17.30;57.20;;;;;;5245111;28;20214;-65
2022/03/19 04:28:04;;;;;;;2.97;1.33;;;17.30;57.30;;;;;;5249146;28;20188;-66
2022/03/19 04:30:56;;;;;;;2.20;1.13;;;17.30;57.10;;;;;;5248744;28;20279;-65
2022/03/19 04:33:48;;;;;;;2.47;0.97;;;17.30;57.30;;;;;;5249052;28;20202;-65
2022/03/19 04:36:41;;;;;;;2.13;1.30;;;17.30;57.20;;;;;;5248650;28;20200;-66
2022/03/19 04:39:33;;;;;;;2.60;1.27;;;17.30;57.20;;;;;;5248827;28;20257;-65
2022/03/19 04:42:26;;;;;;;3.53;1.33;;;17.30;57.30;;;;;;5247101;28;20197;-66
2022/03/19 04:45:18;;;;;;;3.73;1.33;;;17.30;57.20;;;;;;5247039;28;20193;-66
2022/03/19 04:48:11;;;;;;;2.37;1.23;;;17.30;57.20;;;;;;5229204;28;20197;-66
2022/03/19 04:51:03;;;;;;;1.80;1.13;;;17.30;57.20;;;;;;5233766;28;20193;-65
2022/03/19 04:53:56;;;;;;;3.40;1.10;;;17.30;57.10;;;;;;5248251;28;20567;-66
2022/03/19 04:56:48;;;;;;;2.23;1.20;;;17.20;57.00;;;;;;5241270;28;20571;-65
2022/03/19 04:59:41;;;;;;;2.50;1.30;;;17.30;57.20;;;;;;5249560;28;20307;-66
2022/03/19 05:02:34;;;;;;;3.13;1.07;;;17.30;57.20;;;;;;5248520;28;20246;-66
2022/03/19 05:05:26;;;;;;;3.10;1.43;;;17.30;57.20;;;;;;5248250;28;20201;-65
2022/03/19 05:08:18;;;;;;;1.93;1.03;;;17.30;57.10;;;;;;5248117;28;20272;-65
2022/03/19 05:11:12;;;;;;;2.43;1.27;;;17.20;56.90;;;;;;5247065;28;20192;-66
2022/03/19 05:14:06;;;;;;;3.07;1.20;;;17.20;56.90;;;;;;5248679;28;20192;-65
2022/03/19 05:16:59;;;;;;;2.03;1.20;;;17.20;56.90;;;;;;5249355;28;20203;-65
2022/03/19 05:19:52;;;;;;;2.80;1.30;;;17.30;57.00;;;;;;5248478;28;20208;-66
2022/03/19 05:22:44;;;;;;;2.80;1.40;;;17.20;56.90;;;;;;5242078;28;20192;-65
2022/03/19 05:25:36;;;;;;;2.30;1.20;;;17.20;56.70;;;;;;5232774;28;20193;-65
2022/03/19 05:28:29;;;;;;;2.23;1.30;;;17.20;56.80;;;;;;5228643;28;20197;-64
2022/03/19 05:31:21;;;;;;;3.33;1.30;;;17.20;56.70;;;;;;5227309;28;20652;-65
2022/03/19 05:34:34;;;;;;;3.47;1.33;;;17.20;56.80;;;;;;5228372;28;20242;-65
2022/03/19 05:37:26;;;;;;;2.00;1.17;;;17.20;56.80;;;;;;5237630;28;20193;-66
2022/03/19 05:40:18;;;;;;;2.83;1.10;;;17.30;56.90;;;;;;5247710;28;20285;-66
2022/03/19 05:43:10;;;;;;;2.10;1.10;;;17.30;56.70;;;;;;5246291;28;20634;-66
2022/03/19 05:46:02;;;;;;;1.80;1.00;;;17.20;56.50;;;;;;5247265;28;20192;-66
2022/03/19 05:48:54;;;;;;;1.90;1.07;;;17.30;56.70;;;;;;5236032;28;20227;-65
2022/03/19 05:51:48;;;;;;;3.87;1.10;;;17.30;56.90;;;;;;5246842;28;20189;-66
2022/03/19 05:54:40;;;;;;;3.37;1.57;;;17.30;56.80;;;;;;5247459;28;20211;-65
2022/03/19 05:57:33;;;;;;;1.83;1.10;;;17.30;56.60;;;;;;5243467;28;20189;-65
2022/03/19 06:00:25;;;;;;;2.63;1.33;;;17.30;56.70;;;;;;5248636;28;20228;-66
2022/03/19 06:03:17;;;;;;;2.30;1.13;;;17.30;56.70;;;;;;5247380;28;20195;-65
2022/03/19 06:06:09;;;;;;;1.73;1.17;;;17.30;56.80;;;;;;5247054;28;20201;-66
2022/03/19 06:09:03;;;;;;;3.17;1.50;;;17.30;56.70;;;;;;5247029;28;20228;-66
2022/03/19 06:11:55;;;;;;;2.53;1.20;;;17.30;56.50;;;;;;5247157;28;20606;-65
2022/03/19 06:14:49;;;;;;;4.17;1.60;;;17.30;56.50;;;;;;5241877;28;20189;-65
2022/03/19 06:17:41;;;;;;;3.20;1.53;;;17.30;56.60;;;;;;5245801;28;20219;-66
2022/03/19 06:20:33;;;;;;;3.50;1.40;;;17.30;56.60;;;;;;5246978;28;20212;-65
2022/03/19 06:23:25;;;;;;;3.53;1.40;;;17.30;56.90;;;;;;5246692;28;20214;-66
2022/03/19 06:26:20;;;;;;;4.00;1.50;;;17.30;56.60;;;;;;5246609;28;20199;-65
2022/03/19 06:29:12;;;;;;;2.13;1.40;;;17.30;56.60;;;;;;5246591;28;20220;-66
2022/03/19 06:32:04;;;;;;;2.20;1.27;;;17.30;56.50;;;;;;5244011;28;20204;-65
2022/03/19 06:34:57;;;;;;;2.33;1.10;;;17.30;56.70;;;;;;5226405;28;20201;-65
2022/03/19 06:37:48;;;;;;;4.07;1.63;;;17.30;56.60;;;;;;5228530;28;20201;-65
2022/03/19 06:40:40;;;;;;;3.87;1.53;;;17.30;56.60;;;;;;5237972;28;20595;-66
2022/03/19 06:43:33;;;;;;;2.90;1.40;;;17.30;56.60;;;;;;5227451;28;20197;-66
2022/03/19 06:46:26;;;;;;;3.93;1.70;;;17.30;56.60;;;;;;5243418;28;20200;-65
2022/03/19 06:49:18;;;;;;;2.50;1.07;;;17.30;56.40;;;;;;5240552;28;20261;-65
2022/03/19 06:52:11;;;;;;;1.93;1.20;;;17.30;56.40;;;;;;5226173;28;20190;-65
2022/03/19 06:55:03;;;;;;;2.43;1.30;;;17.30;56.60;;;;;;5226743;28;20194;-66
2022/03/19 06:57:56;;;;;;;2.43;1.30;;;17.30;56.90;;;;;;5238219;28;20195;-66
2022/03/19 07:00:50;;;;;;;2.40;1.30;;;17.30;56.80;;;;;;5246019;28;20265;-66
2022/03/19 07:03:43;;;;;;;2.37;1.07;;;17.40;56.80;;;;;;5241220;28;20262;-66
2022/03/19 07:06:36;;;;;;;2.20;1.20;;;17.30;56.50;;;;;;5241534;28;20379;-65
2022/03/19 07:09:28;;;;;;;2.93;1.10;;;17.30;56.50;;;;;;5235956;28;20290;-66
2022/03/19 07:12:20;;;;;;;3.07;1.07;;;17.30;56.50;;;;;;5225910;28;20374;-65
2022/03/19 07:15:13;;;;;;;2.13;1.10;;;17.30;56.30;;;;;;5225520;28;20197;-66
2022/03/19 07:18:07;;;;;;;3.17;1.40;;;17.30;56.60;;;;;;5225641;28;20280;-66
2022/03/19 07:20:59;;;;;;;2.80;1.47;;;17.30;56.60;;;;;;5237710;28;20292;-65
2022/03/19 07:23:51;;;;;;;2.47;1.17;;;17.30;56.50;;;;;;5228652;28;20228;-66
2022/03/19 07:26:43;;;;;;;2.53;1.40;;;17.30;56.60;;;;;;5239268;28;20281;-66
2022/03/19 07:29:35;;;;;;;2.27;1.30;;;17.30;56.50;;;;;;5241720;28;20782;-66
2022/03/19 07:32:28;;;;;;;1.90;0.90;;;17.40;56.70;;;;;;5246589;28;20189;-66
2022/03/19 07:35:21;;;;;;;2.77;1.27;;;17.40;56.70;;;;;;5241243;28;20185;-65
2022/03/19 07:38:13;;;;;;;2.23;1.13;;;17.30;56.60;;;;;;5225229;28;20224;-65
2022/03/19 07:44:16;;;;;;;2.67;1.27;;;17.30;56.60;;;;;;5225923;28;20177;-65
2022/03/19 07:47:08;;;;;;;2.30;1.07;;;17.30;56.60;;;;;;5241150;28;20691;-65
2022/03/19 07:50:01;;;;;;;3.23;1.37;;;17.30;56.70;;;;;;5239129;28;20208;-65
2022/03/19 07:52:55;;;;;;;2.10;1.10;;;17.30;56.70;;;;;;5240180;28;20540;-66
2022/03/19 07:55:47;;;;;;;3.13;1.40;;;17.30;56.70;;;;;;5246408;28;20189;-66
2022/03/19 07:58:40;;;;;;;3.07;1.30;;;17.30;56.70;;;;;;5243931;28;20216;-66
2022/03/19 08:01:32;;;;;;;4.03;1.30;;;17.30;56.80;;;;;;5230492;28;20742;-65
2022/03/19 08:04:24;;;;;;;2.27;1.00;;;17.30;56.80;;;;;;5237466;28;20192;-66
2022/03/19 08:07:19;;;;;;;3.07;1.40;;;17.30;56.90;;;;;;5242318;28;20207;-66
2022/03/19 08:10:15;;;;;;;3.57;0.90;;;17.40;57.10;;;;;;5242156;28;20835;-65
2022/03/19 08:13:09;;;;;;;1.83;0.80;;;17.30;57.30;;;;;;5242904;28;20226;-65
2022/03/19 08:16:01;;;;;;;2.47;0.90;;;17.40;57.50;;;;;;5232034;28;20690;-66
2022/03/19 08:18:54;;;;;;;2.20;1.07;;;17.40;57.50;;;;;;5238593;28;20216;-65
2022/03/19 08:21:46;;;;;;;2.07;1.27;;;17.30;57.40;;;;;;5232588;28;20213;-65
2022/03/19 08:24:38;;;;;;;2.23;1.20;;;17.40;57.50;;;;;;5224789;28;20202;-64
2022/03/19 08:27:31;;;;;;;1.67;0.80;;;17.40;57.40;;;;;;5224968;28;20201;-65
2022/03/19 08:30:24;;;;;;;1.97;0.90;;;17.40;57.50;;;;;;5244693;28;20215;-65
2022/03/19 08:33:16;;;;;;;2.73;1.20;;;17.40;57.70;;;;;;5244476;28;20548;-66
2022/03/19 08:36:08;;;;;;;2.53;0.93;;;17.40;57.70;;;;;;5244922;28;20189;-66
2022/03/19 08:42:09;;;;;;;1.93;0.80;;;17.40;57.80;;;;;;5245246;28;20216;-66
2022/03/19 08:45:03;;;;;;;2.63;1.07;;;17.40;57.70;;;;;;5239482;28;20193;-65
2022/03/19 08:47:55;;;;;;;2.80;1.00;;;17.40;57.60;;;;;;5241876;28;20222;-65
2022/03/19 08:50:48;;;;;;;2.77;1.00;;;17.40;57.70;;;;;;5232999;28;20571;-65
2022/03/19 08:53:40;;;;;;;2.27;0.93;;;17.40;57.70;;;;;;5224413;28;20197;-65
2022/03/19 08:56:32;;;;;;;2.03;1.03;;;17.40;57.70;;;;;;5224219;28;20193;-64
2022/03/19 08:59:24;;;;;;;2.30;1.00;;;17.40;57.70;;;;;;5231204;28;20576;-65
2022/03/19 09:02:17;;;;;;;3.93;1.00;;;17.40;57.70;;;;;;5225366;28;20217;-65
2022/03/19 09:05:10;;;;;;;1.63;0.87;;;17.40;57.70;;;;;;5232516;28;20279;-65
2022/03/19 09:08:03;;;;;;;3.67;1.07;;;17.40;57.90;;;;;;5240120;28;20331;-65
2022/03/19 09:10:57;;;;;;;2.53;1.03;;;17.40;57.80;;;;;;5224047;28;20199;-66
2022/03/19 09:13:49;;;;;;;3.93;1.50;;;17.40;57.80;;;;;;5231524;28;20676;-65
2022/03/19 09:16:42;;;;;;;3.13;1.20;;;17.40;57.90;;;;;;5241730;28;20196;-69
2022/03/19 09:19:37;;;;;;;3.10;1.17;;;17.50;57.90;;;;;;5242582;28;20717;-68
2022/03/19 09:22:30;;;;;;;5.33;1.50;;;17.40;57.70;;;;;;5264537;22;20240;-65
2022/03/19 09:25:23;;;;;;;6.27;1.70;;;17.50;56.90;;;;;;5251726;28;20203;-67
2022/03/19 09:28:15;;;;;;;4.67;1.77;;;17.50;56.50;;;;;;5240442;28;20200;-66
2022/03/19 09:31:07;;;;;;;23.43;4.73;;;17.40;57.40;;;;;;5236264;28;20224;-65
2022/03/19 09:33:59;;;;;;;9.93;2.27;;;17.40;55.80;;;;;;5227290;28;20672;-66
2022/03/19 09:36:53;;;;;;;7.23;2.17;;;17.40;54.20;;;;;;5208861;28;20190;-67
2022/03/19 09:39:45;;;;;;;4.63;1.80;;;17.40;54.50;;;;;;5227071;28;20194;-66
2022/03/19 09:42:48;;;;;;;7.47;2.27;;;17.40;53.90;;;;;;5239239;28;20262;-65
2022/03/19 09:45:40;;;;;;;5.37;1.87;;;17.30;54.50;;;;;;5247486;28;20868;-66
2022/03/19 09:48:32;;;;;;;5.90;1.90;;;17.30;54.10;;;;;;5238746;28;20560;-65
2022/03/19 09:51:28;;;;;;;6.87;2.30;;;17.40;50.50;;;;;;5230674;28;20692;-66
2022/03/19 09:54:22;;;;;;;9.77;3.17;;;17.30;51.00;;;;;;5233350;28;20197;-65
2022/03/19 09:57:14;;;;;;;9.40;3.00;;;17.30;49.70;;;;;;5233445;28;20197;-66
2022/03/19 10:00:08;;;;;;;4.33;2.27;;;17.20;50.60;;;;;;5247545;28;20274;-66
2022/03/19 10:03:02;;;;;;;8.27;2.37;;;17.20;49.00;;;;;;5221560;28;20194;-65
2022/03/19 10:09:04;;;;;;;7.30;1.93;;;17.20;46.80;;;;;;5239297;28;20192;-66
2022/03/19 10:11:58;;;;;;;4.70;1.80;;;17.10;48.10;;;;;;5247213;28;20211;-65
2022/03/19 10:14:53;;;;;;;7.40;1.83;;;17.10;47.70;;;;;;5220100;28;20190;-66
2022/03/19 10:17:45;;;;;;;5.13;1.50;;;17.10;47.30;;;;;;5228523;28;20320;-65
2022/03/19 10:20:38;;;;;;;4.03;1.43;;;17.10;47.50;;;;;;5233336;28;20721;-65
2022/03/19 10:23:34;;;;;;;4.50;1.37;;;17.10;47.90;;;;;;5235762;28;20271;-66
2022/03/19 10:26:28;;;;;;;5.30;1.77;;;17.10;48.30;;;;;;5248184;28;20201;-66
2022/03/19 10:29:31;;;;;;;6.13;1.60;;;17.10;48.10;;;;;;5246725;28;20215;-64
2022/03/19 10:32:28;;;;;;;3.73;1.50;;;17.10;48.50;;;;;;5237882;28;20219;-64
2022/03/19 10:35:28;;;;;;;5.53;1.50;;;17.10;48.80;;;;;;5233724;28;20189;-64
2022/03/19 10:38:22;;;;;;;3.27;1.30;;;17.10;48.70;;;;;;5245823;28;20222;-65
2022/03/19 10:41:18;;;;;;;5.85;1.80;;;17.10;47.60;;;;;;5246537;28;20441;-65
2022/03/19 10:44:12;;;;;;;4.33;1.20;;;17.20;46.70;;;;;;5245652;28;20226;-65
2022/03/19 10:47:06;;;;;;;2.60;1.20;;;17.10;43.70;;;;;;5232931;28;20664;-64
2022/03/19 10:50:01;;;;;;;4.70;1.40;;;17.10;46.20;;;;;;5220235;28;20290;-64
2022/03/19 10:52:54;;;;;;;3.73;1.20;;;17.10;45.20;;;;;;5239087;28;20240;-65
2022/03/19 10:55:46;;;;;;;4.60;1.30;;;17.00;43.60;;;;;;5225954;28;20243;-64
2022/03/19 10:58:38;;;;;;;4.93;1.00;;;16.90;41.90;;;;;;5226258;28;20901;-65
2022/03/19 11:01:34;;;;;;;3.50;1.10;;;16.80;41.90;;;;;;5219784;28;20676;-64
2022/03/19 11:04:31;;;;;;;3.00;0.87;;;16.80;41.70;;;;;;5227021;28;20327;-65
2022/03/19 11:07:24;;;;;;;3.33;1.03;;;16.70;40.80;;;;;;5204715;28;20692;-65
2022/03/19 11:10:19;;;;;;;2.03;0.80;;;16.70;40.40;;;;;;5205239;28;20202;-66
2022/03/19 11:13:13;;;;;;;3.03;0.80;;;16.70;40.90;;;;;;5203518;28;20200;-65
2022/03/19 11:16:07;;;;;;;3.43;1.30;;;16.70;42.30;;;;;;5205290;28;20247;-64
2022/03/19 11:19:00;;;;;;;3.60;1.03;;;16.70;43.40;;;;;;5205873;28;20327;-65
2022/03/19 11:21:53;;;;;;;2.57;0.83;;;16.70;44.00;;;;;;5214478;28;20770;-66
2022/03/19 11:24:53;;;;;;;3.87;1.07;;;16.80;44.50;;;;;;5205937;28;20204;-65
2022/03/19 11:27:48;;;;;;;2.63;1.00;;;16.80;45.10;;;;;;5205608;28;20197;-66
2022/03/19 11:30:45;;;;;;;1.70;0.60;;;16.90;45.50;;;;;;5206217;28;20213;-65
2022/03/19 11:33:38;;;;;;;2.23;0.90;;;16.90;45.80;;;;;;5230735;28;20188;-64
2022/03/19 11:36:30;;;;;;;5.07;1.17;;;16.90;46.80;;;;;;5225325;28;20238;-65
2022/03/19 11:39:24;;;;;;;3.67;1.00;;;16.90;46.60;;;;;;5208675;28;20204;-65
2022/03/19 11:42:16;;;;;;;4.47;1.20;;;16.80;45.60;;;;;;5219769;28;20433;-65
2022/03/19 11:45:10;;;;;;;4.20;1.00;;;16.80;45.20;;;;;;5216451;28;20201;-64
2022/03/19 11:48:02;;;;;;;2.17;1.00;;;16.80;45.70;;;;;;5229370;28;20204;-64
2022/03/19 11:50:55;;;;;;;1.53;0.80;;;16.80;42.70;;;;;;5224217;28;20214;-64
2022/03/19 11:53:57;;;;;;;1.30;0.70;;;16.80;42.60;;;;;;5204498;28;20249;-65
2022/03/19 11:57:08;;;;;;;4.10;0.80;;;16.70;44.90;;;;;;5204635;28;20546;-65
2022/03/19 12:00:00;;;;;;;3.57;1.23;;;16.80;46.80;;;;;;5204551;28;20197;-65
2022/03/19 12:03:04;;;;;;;1.73;0.70;;;16.80;46.10;;;;;;5218668;28;20311;-65
2022/03/19 12:05:56;;;;;;;1.50;0.67;;;16.80;45.10;;;;;;5234337;28;20681;-64
2022/03/19 12:08:49;;;;;;;4.07;0.80;;;16.80;44.80;;;;;;5216684;28;20274;-64
2022/03/19 12:11:42;;;;;;;1.17;0.60;;;16.80;43.90;;;;;;5227624;28;20217;-65
2022/03/19 12:14:35;;;;;;;2.20;0.80;;;16.80;44.60;;;;;;5224738;28;20212;-65
2022/03/19 12:17:31;;;;;;;1.47;0.70;;;16.80;44.60;;;;;;5224989;28;20690;-65
2022/03/19 12:20:24;;;;;;;2.30;0.70;;;16.80;45.00;;;;;;5225161;28;20351;-65
2022/03/19 12:23:16;;;;;;;2.10;0.60;;;16.80;43.40;;;;;;5224399;28;20718;-65
2022/03/19 12:26:10;;;;;;;1.10;0.50;;;16.80;44.30;;;;;;5204277;28;20190;-65
2022/03/19 12:29:04;;;;;;;2.43;0.87;;;16.80;44.40;;;;;;5204905;28;20276;-66
2022/03/19 12:31:58;;;;;;;1.27;0.47;;;16.80;44.00;;;;;;5220102;28;20255;-65
2022/03/19 12:34:58;;;;;;;2.10;0.93;;;16.80;44.10;;;;;;5232319;28;20695;-65
2022/03/19 12:37:52;;;;;;;3.93;1.00;;;16.80;44.10;;;;;;5222716;28;20189;-65
2022/03/19 12:43:55;;;;;;;1.17;0.50;;;16.80;44.10;;;;;;5223187;28;20242;-64
2022/03/19 12:46:52;;;;;;;3.20;0.97;;;16.80;44.50;;;;;;5222684;28;20667;-65
2022/03/19 12:49:53;;;;;;;2.43;0.57;;;16.80;44.30;;;;;;5228684;28;20701;-65
2022/03/19 12:52:46;;;;;;;2.50;0.67;;;16.80;43.60;;;;;;5224388;28;20205;-65
2022/03/19 12:55:38;;;;;;;2.13;0.60;;;16.80;43.50;;;;;;5208710;28;20190;-64
2022/03/19 12:58:37;;;;;;;2.00;0.90;;;16.80;43.40;;;;;;5235917;28;20193;-64
2022/03/19 13:01:30;;;;;;;3.00;1.00;;;16.80;43.80;;;;;;5223090;28;20771;-65
2022/03/19 13:04:24;;;;;;;0.93;0.60;;;16.80;43.80;;;;;;5235102;28;20685;-66
2022/03/19 13:07:19;;;;;;;1.87;0.60;;;16.80;43.90;;;;;;5218593;28;20693;-65
2022/03/19 13:10:14;;;;;;;1.57;0.67;;;16.80;44.30;;;;;;5225206;28;20567;-65
2022/03/19 13:13:07;;;;;;;1.10;0.67;;;16.80;44.40;;;;;;5228238;28;20652;-66
2022/03/19 13:15:59;;;;;;;1.80;0.70;;;16.80;44.40;;;;;;5227372;28;20189;-65
2022/03/19 13:18:57;;;;;;;1.30;0.70;;;16.80;44.80;;;;;;5225872;28;20216;-65
2022/03/19 13:21:50;;;;;;;1.50;0.50;;;16.80;44.70;;;;;;5232652;28;20311;-64
2022/03/19 13:24:44;;;;;;;1.90;0.90;;;16.80;43.60;;;;;;5232780;28;20189;-65
2022/03/19 13:27:36;;;;;;;1.33;0.63;;;16.80;44.80;;;;;;5248991;28;20306;-64
2022/03/19 13:30:28;;;;;;;0.90;0.60;;;16.80;44.90;;;;;;5228259;28;20683;-65
2022/03/19 13:33:22;;;;;;;1.37;0.70;;;16.80;44.80;;;;;;5218853;28;20197;-65
2022/03/19 13:36:14;;;;;;;1.27;0.60;;;16.80;44.00;;;;;;5213576;28;20275;-65
2022/03/19 13:39:06;;;;;;;1.50;0.50;;;16.80;44.70;;;;;;5216371;28;20202;-65
2022/03/19 13:42:05;;;;;;;3.80;0.90;;;16.80;45.00;;;;;;5209371;28;20729;-65
2022/03/19 13:45:01;;;;;;;1.60;0.77;;;16.80;44.80;;;;;;5206974;28;20190;-65
2022/03/19 13:48:03;;;;;;;1.53;0.63;;;16.80;45.00;;;;;;5228095;28;20197;-65
2022/03/19 13:50:59;;;;;;;2.37;0.60;;;16.80;45.10;;;;;;5233907;28;20249;-65
2022/03/19 13:53:52;;;;;;;1.77;0.70;;;16.80;45.50;;;;;;5240714;28;20721;-64
2022/03/19 13:56:55;;;;;;;2.47;0.77;;;16.80;44.60;;;;;;5244186;28;20193;-65
2022/03/19 13:59:48;;;;;;;1.87;0.70;;;16.80;44.90;;;;;;5209229;28;20289;-66
2022/03/19 14:02:42;;;;;;;1.77;0.90;;;16.80;45.20;;;;;;5219689;28;20684;-65
2022/03/19 14:05:36;;;;;;;2.37;0.90;;;16.90;45.30;;;;;;5233612;28;20743;-65
2022/03/19 14:08:28;;;;;;;4.00;0.90;;;16.80;44.20;;;;;;5225998;28;20201;-65
2022/03/19 14:11:20;;;;;;;1.63;0.63;;;16.80;44.40;;;;;;5226726;28;20214;-65
2022/03/19 14:14:16;;;;;;;1.90;0.80;;;16.80;43.70;;;;;;5206914;28;20227;-65
2022/03/19 14:17:10;;;;;;;2.73;0.80;;;16.80;43.30;;;;;;5214810;28;20193;-66
2022/03/19 14:20:02;;;;;;;1.43;0.77;;;16.80;43.90;;;;;;5236558;28;20205;-65
2022/03/19 14:22:54;;;;;;;1.63;0.70;;;16.80;43.90;;;;;;5216720;28;20222;-65
2022/03/19 14:25:47;;;;;;;2.33;0.77;;;16.80;44.00;;;;;;5213094;28;20242;-65
2022/03/19 14:28:40;;;;;;;2.33;0.70;;;16.70;40.90;;;;;;5226205;28;20213;-64
2022/03/19 14:31:32;;;;;;;1.87;0.90;;;16.70;39.70;;;;;;5227779;28;20704;-65
2022/03/19 14:34:26;;;;;;;1.67;0.60;;;16.60;37.80;;;;;;5219617;28;20281;-64
2022/03/19 14:37:18;;;;;;;1.37;0.80;;;16.50;37.70;;;;;;5233195;28;20673;-66
2022/03/19 14:40:11;;;;;;;1.57;0.80;;;16.40;39.90;;;;;;5231912;28;20197;-65
2022/03/19 14:43:04;;;;;;;0.93;0.40;;;16.40;41.70;;;;;;5231184;28;20557;-66
2022/03/19 14:45:58;;;;;;;3.40;0.87;;;16.50;42.50;;;;;;5211960;28;20197;-66
2022/03/19 14:48:50;;;;;;;1.50;0.50;;;16.50;43.10;;;;;;5232419;28;20572;-67
2022/03/19 14:51:44;;;;;;;1.77;0.70;;;16.60;43.60;;;;;;5240192;28;20214;-66
2022/03/19 14:54:36;;;;;;;1.17;0.50;;;16.60;44.00;;;;;;5224827;28;20201;-67
2022/03/19 14:57:28;;;;;;;1.90;0.70;;;16.70;44.60;;;;;;5219525;28;20190;-66
2022/03/19 15:00:21;;;;;;;2.10;0.60;;;16.60;44.90;;;;;;5215692;28;20194;-66
2022/03/19 15:03:13;;;;;;;1.33;0.60;;;16.70;45.30;;;;;;5221786;28;20220;-66
2022/03/19 15:06:06;;;;;;;1.87;0.60;;;16.70;45.60;;;;;;5220135;28;20450;-66
2022/03/19 15:08:59;;;;;;;2.73;0.60;;;16.70;45.90;;;;;;5212004;28;20193;-66
2022/03/19 15:11:51;;;;;;;3.03;0.83;;;16.80;46.20;;;;;;5217222;28;20588;-66
2022/03/19 15:14:44;;;;;;;1.90;0.80;;;16.80;46.20;;;;;;5218831;28;20204;-67
2022/03/19 15:17:36;;;;;;;2.73;0.63;;;16.80;45.80;;;;;;5216543;28;20284;-66
2022/03/19 15:20:29;;;;;;;2.03;0.80;;;16.80;45.50;;;;;;5206782;28;20216;-66